CHIUDI BANNER

Seguici su twitter Seguici su facebook
LIVE Streaming HD
Get Adobe Flash player
Dati meteo stazione (refresh automatico ogni minuto)
Ostia(RM) VENTO: VELOCITÀ   PIOGGIA: QTA GIORNO TEMPERATURA: ATTUALE
SPOT: Kursaal Lido Ostia ---- Posizione su Googlemap:Latitudine: 41.71N Longitudine: 12.31E RAFFICA MASSIMA: QTA MENSILE: MASSIMA:
VELOCITÀ MEDIA: QTA ANNUALE: MINIMA:
DIREZIONE: UMIDITÀ: WIND CHILL:
TIPO: DEW POINT:
BEAUFORT: PRESSIONE:
I nostri partner
Ostia(RM) nelle ultime ore
Applica filtri in visualizzazione Intervallo delle letture nelle ultime

Ora Direzione Vento Velocita' Vento Media Vento Raffica Max. Temperatura Wind Chill Pioggia Pressione
07:36:3139 °(NE)7 Kts7 Kts11.3 Kts10.4 °C6.6 °C0 mm1023.2 Hpa
07:31:4829 °(NNE)4.3 Kts7 Kts11.3 Kts37 °C37 °C0 mm1023 Hpa
07:26:4840 °(NE)7.8 Kts6.1 Kts11.3 Kts36.9 °C36.9 °C0 mm1023.1 Hpa
07:21:4316 °(NNE)3.5 Kts5.2 Kts11.3 Kts36.8 °C36.8 °C0 mm1023.1 Hpa
07:16:3933 °(NNE)6.1 Kts5.2 Kts11.3 Kts36.5 °C36.5 °C0 mm1023 Hpa
07:11:3321 °(NNE)2.6 Kts5.2 Kts11.3 Kts36.5 °C36.5 °C0 mm1023 Hpa
07:06:5928 °(NNE)5.2 Kts5.2 Kts11.3 Kts36.4 °C36.4 °C0 mm1022.9 Hpa
07:01:3027 °(NNE)6.1 Kts6.1 Kts11.3 Kts36.4 °C36.4 °C0 mm1022.9 Hpa
06:56:5325 °(NNE)7.8 Kts7 Kts11.3 Kts36.2 °C36.2 °C0 mm1022.7 Hpa
06:51:4533 °(NNE)6.1 Kts7 Kts11.3 Kts36.2 °C36.2 °C0 mm1022.7 Hpa
06:46:4033 °(NNE)6.1 Kts7 Kts11.3 Kts36.2 °C36.2 °C0 mm1022.8 Hpa
06:41:4632 °(NNE)5.2 Kts7 Kts10.4 Kts36.4 °C36.4 °C0 mm1022.7 Hpa
06:36:4432 °(NNE)9.6 Kts7 Kts10.4 Kts9.8 °C5.9 °C0 mm1022.7 Hpa
06:31:5028 °(NNE)7 Kts7 Kts10.4 Kts9.8 °C6 °C0 mm1022.7 Hpa
06:26:2537 °(NE)7 Kts6.1 Kts10.4 Kts9.8 °C6.8 °C0 mm1022.7 Hpa
06:21:5110 °(N)7 Kts5.2 Kts10.4 Kts9.8 °C7.7 °C0 mm1022.5 Hpa
06:16:4841 °(NE)7 Kts5.2 Kts10.4 Kts9.8 °C7.7 °C0 mm1022.5 Hpa
06:11:4537 °(NE)5.2 Kts6.1 Kts10.4 Kts9.8 °C6.8 °C0 mm1022.5 Hpa
06:06:41359 °(N)3.5 Kts6.1 Kts10.4 Kts9.8 °C6.8 °C0 mm1022.5 Hpa
06:01:3412 °(NNE)5.2 Kts6.1 Kts10.4 Kts9.9 °C6.9 °C0 mm1022.5 Hpa
05:56:3732 °(NNE)7 Kts6.1 Kts10.4 Kts9.9 °C6.9 °C0 mm1022.5 Hpa
05:51:3444 °(NE)7 Kts6.1 Kts10.4 Kts36.5 °C36.5 °C0 mm1022.5 Hpa
05:46:3123 °(NNE)3.5 Kts5.2 Kts10.4 Kts36.5 °C36.5 °C0 mm1022.5 Hpa
05:41:578 °(N)5.2 Kts6.1 Kts10.4 Kts36.7 °C36.7 °C0 mm1022.5 Hpa